Time;durP1;ratioP1;P1;durP2;ratioP2;P2;SDS_P1;SDS_P2;PMS_P1;PMS_P2;Temp;Humidity;BMP_temperature;BMP_pressure;BME280_temperature;BME280_humidity;BME280_pressure;Samples;Min_cycle;Max_cycle;Signal;HPM_P1;HPM_P2
2023/04/20 00:01:31;;;;;;;1.95;1.00;;;4.60;99.90;;;;;;5085026;28;20048;-87
2023/04/20 00:03:57;;;;;;;1.90;1.00;;;4.60;99.90;;;;;;5077690;28;20122;-87
2023/04/20 00:06:28;;;;;;;2.35;0.90;;;4.60;99.90;;;;;;5085808;28;20040;-87
2023/04/20 00:08:54;;;;;;;1.55;0.98;;;4.50;99.90;;;;;;5100795;28;20032;-87
2023/04/20 00:11:19;;;;;;;2.53;1.02;;;4.60;99.90;;;;;;5068172;28;20375;-87
2023/04/20 00:13:45;;;;;;;1.20;0.85;;;4.60;99.90;;;;;;5089389;28;20028;-87
2023/04/20 00:16:11;;;;;;;1.85;1.00;;;4.60;99.90;;;;;;5085923;28;20964;-88
2023/04/20 00:18:36;;;;;;;2.25;0.95;;;4.60;99.90;;;;;;5094539;28;20031;-88
2023/04/20 00:21:02;;;;;;;1.50;0.90;;;4.60;99.90;;;;;;5069475;28;20043;-88
2023/04/20 00:23:28;;;;;;;1.75;1.08;;;4.60;99.90;;;;;;5089554;28;20036;-87
2023/04/20 00:25:54;;;;;;;2.20;1.10;;;4.60;99.90;;;;;;5103070;28;20047;-87
2023/04/20 00:28:19;;;;;;;2.10;0.85;;;4.60;99.90;;;;;;5087230;28;20494;-87
2023/04/20 00:30:45;;;;;;;1.60;0.95;;;4.70;99.90;;;;;;5098230;28;20036;-87
2023/04/20 00:33:11;;;;;;;1.90;0.80;;;4.60;99.90;;;;;;5088782;27;20124;-87
2023/04/20 00:35:36;;;;;;;1.92;1.10;;;4.60;99.90;;;;;;5114701;27;20044;-87
2023/04/20 00:38:02;;;;;;;2.47;0.93;;;4.60;99.90;;;;;;5106733;28;20028;-87
2023/04/20 00:40:28;;;;;;;2.70;1.42;;;4.70;99.90;;;;;;5092797;28;20043;-87
2023/04/20 00:42:54;;;;;;;2.30;1.48;;;4.60;99.90;;;;;;5084322;28;20040;-87
2023/04/20 00:45:21;;;;;;;1.92;1.13;;;4.70;99.90;;;;;;5115104;28;20040;-87
2023/04/20 00:47:47;;;;;;;2.85;1.63;;;4.60;99.90;;;;;;5092423;28;20043;-87
2023/04/20 00:50:14;;;;;;;3.10;1.45;;;4.60;99.90;;;;;;5112802;28;20036;-87
2023/04/20 00:52:41;;;;;;;2.83;1.60;;;4.60;99.90;;;;;;5096354;28;20047;-87
2023/04/20 00:55:07;;;;;;;3.05;1.40;;;4.50;99.90;;;;;;5088619;28;20040;-87
2023/04/20 00:57:33;;;;;;;2.40;1.40;;;4.50;99.90;;;;;;5109308;28;20036;-87
2023/04/20 01:00:00;;;;;;;2.38;1.30;;;4.50;99.90;;;;;;5103826;28;20092;-86
2023/04/20 01:02:26;;;;;;;2.25;1.30;;;4.40;99.90;;;;;;5090766;27;20023;-87
2023/04/20 01:04:53;;;;;;;3.42;1.00;;;4.40;99.90;;;;;;5117934;28;20039;-87
2023/04/20 01:07:19;;;;;;;2.67;1.67;;;4.40;99.90;;;;;;5122499;28;20037;-87
2023/04/20 01:09:45;;;;;;;2.47;1.38;;;4.40;99.90;;;;;;5107107;28;20099;-87
2023/04/20 01:12:10;;;;;;;2.58;1.50;;;4.40;99.90;;;;;;5095954;28;20040;-87
2023/04/20 01:14:36;;;;;;;3.20;1.40;;;4.40;99.90;;;;;;5084479;28;20126;-87
2023/04/20 01:17:03;;;;;;;2.78;1.20;;;4.30;99.90;;;;;;5104666;28;20047;-88
2023/04/20 01:19:29;;;;;;;2.45;1.30;;;4.40;99.90;;;;;;5110327;28;20448;-87
2023/04/20 01:21:55;;;;;;;2.55;1.40;;;4.40;99.90;;;;;;5081428;28;20044;-87
2023/04/20 01:24:20;;;;;;;2.75;1.73;;;4.40;99.90;;;;;;5105827;28;20053;-87
2023/04/20 01:26:46;;;;;;;2.65;1.52;;;4.30;99.90;;;;;;5105024;28;20019;-87
2023/04/20 01:29:12;;;;;;;4.07;1.35;;;4.30;99.90;;;;;;5074888;28;20047;-87
2023/04/20 01:31:37;;;;;;;2.92;2.03;;;4.30;99.90;;;;;;5082806;28;20040;-87
2023/04/20 01:34:03;;;;;;;2.70;1.55;;;4.20;99.90;;;;;;5101338;28;20107;-87
2023/04/20 01:36:29;;;;;;;5.82;1.90;;;4.20;99.90;;;;;;5097153;28;20032;-87
2023/04/20 01:38:55;;;;;;;4.00;2.03;;;4.20;99.90;;;;;;5094590;28;20043;-87
2023/04/20 01:41:21;;;;;;;3.42;2.05;;;4.10;99.90;;;;;;5100288;28;20077;-87
2023/04/20 01:43:46;;;;;;;2.85;1.75;;;4.10;99.90;;;;;;5095412;28;20028;-87
2023/04/20 01:46:12;;;;;;;2.78;1.60;;;4.10;99.90;;;;;;5097710;28;20043;-87
2023/04/20 01:48:38;;;;;;;3.97;1.60;;;4.10;99.90;;;;;;5081428;28;20055;-87
2023/04/20 01:51:03;;;;;;;2.97;1.70;;;4.10;99.90;;;;;;5098971;28;20060;-87
2023/04/20 01:53:29;;;;;;;3.17;1.95;;;4.10;99.90;;;;;;5119628;27;20101;-87
2023/04/20 01:55:55;;;;;;;3.28;2.00;;;4.10;99.90;;;;;;5095038;28;20832;-87
2023/04/20 01:58:20;;;;;;;2.97;1.92;;;4.10;99.90;;;;;;5098549;28;20065;-87
2023/04/20 02:00:46;;;;;;;3.50;2.00;;;4.10;99.90;;;;;;5127212;28;20047;-87
2023/04/20 02:03:12;;;;;;;3.03;1.85;;;4.10;99.90;;;;;;5132090;27;20039;-87
2023/04/20 02:05:38;;;;;;;3.40;1.75;;;4.00;99.90;;;;;;5109881;28;20099;-87
2023/04/20 02:08:04;;;;;;;4.97;1.83;;;4.00;99.90;;;;;;5104251;28;20072;-87
2023/04/20 02:10:29;;;;;;;3.47;1.65;;;4.00;99.90;;;;;;5084147;28;20489;-86
2023/04/20 02:12:55;;;;;;;3.17;1.63;;;4.00;99.90;;;;;;5110750;28;20107;-87
2023/04/20 02:15:21;;;;;;;2.88;1.58;;;4.00;99.90;;;;;;5116493;27;20868;-87
2023/04/20 02:17:50;;;;;;;2.30;1.70;;;4.00;99.90;;;;;;5111524;28;20035;-87
2023/04/20 02:20:18;;;;;;;3.22;1.92;;;4.00;99.90;;;;;;5115891;27;20043;-87
2023/04/20 02:22:44;;;;;;;3.72;1.70;;;4.00;99.90;;;;;;5102647;28;20458;-87
2023/04/20 02:25:11;;;;;;;3.30;1.98;;;4.00;99.90;;;;;;5103144;28;20051;-87
2023/04/20 02:27:37;;;;;;;2.47;1.73;;;4.00;99.90;;;;;;5093421;28;20059;-87
2023/04/20 02:30:03;;;;;;;1.95;1.17;;;4.00;99.90;;;;;;5125319;27;20036;-87
2023/04/20 02:32:28;;;;;;;4.35;1.30;;;4.00;99.90;;;;;;5097997;28;20070;-87
2023/04/20 02:34:54;;;;;;;2.33;1.30;;;4.00;99.90;;;;;;5094762;28;20036;-87
2023/04/20 02:37:20;;;;;;;1.85;1.05;;;4.00;99.90;;;;;;5099661;28;20036;-87
2023/04/20 02:39:46;;;;;;;1.98;1.02;;;4.00;99.90;;;;;;5099481;28;20077;-87
2023/04/20 02:42:11;;;;;;;1.92;0.80;;;3.90;99.90;;;;;;5117301;28;20044;-87
2023/04/20 02:44:38;;;;;;;1.65;1.00;;;3.90;99.90;;;;;;5098260;28;20055;-87
2023/04/20 02:47:04;;;;;;;1.75;1.02;;;3.90;99.90;;;;;;5117755;28;20035;-87
2023/04/20 02:49:30;;;;;;;2.65;1.30;;;3.90;99.90;;;;;;5099486;28;20093;-87
2023/04/20 02:51:55;;;;;;;1.77;1.13;;;3.90;99.90;;;;;;5113857;28;20032;-87
2023/04/20 02:54:21;;;;;;;2.63;1.60;;;3.90;99.90;;;;;;5122399;28;20083;-87
2023/04/20 02:56:47;;;;;;;2.25;1.20;;;3.90;99.90;;;;;;5119385;28;20032;-87
2023/04/20 02:59:12;;;;;;;2.70;1.58;;;3.90;99.90;;;;;;5110440;28;20038;-87
2023/04/20 03:01:38;;;;;;;2.30;1.20;;;3.90;99.90;;;;;;5107939;28;20043;-87
2023/04/20 03:04:04;;;;;;;2.47;1.25;;;3.80;99.90;;;;;;5108350;28;20099;-87
2023/04/20 03:06:29;;;;;;;2.50;1.45;;;3.80;99.90;;;;;;5094644;28;20055;-87
2023/04/20 03:08:55;;;;;;;2.58;1.50;;;3.80;99.90;;;;;;5086109;27;20031;-87
2023/04/20 03:11:21;;;;;;;2.28;1.27;;;3.70;99.90;;;;;;5086172;28;20055;-87
2023/04/20 03:13:46;;;;;;;2.58;1.55;;;3.70;99.90;;;;;;5082816;28;20062;-87
2023/04/20 03:16:12;;;;;;;1.85;1.35;;;3.70;99.90;;;;;;5114268;27;20047;-87
2023/04/20 03:18:39;;;;;;;2.20;1.35;;;3.70;99.90;;;;;;5140120;27;20023;-87
2023/04/20 03:21:04;;;;;;;2.40;1.50;;;3.60;99.90;;;;;;5105100;28;20024;-87
2023/04/20 03:23:30;;;;;;;2.40;1.40;;;3.60;99.90;;;;;;5098832;28;20044;-87
2023/04/20 03:25:56;;;;;;;2.50;1.30;;;3.60;99.90;;;;;;5095076;28;20119;-87
2023/04/20 03:28:22;;;;;;;3.25;1.55;;;3.60;99.90;;;;;;5106408;28;20036;-87
2023/04/20 03:30:47;;;;;;;2.83;1.50;;;3.60;99.90;;;;;;5108785;28;20040;-87
2023/04/20 03:33:13;;;;;;;2.05;1.30;;;3.60;99.90;;;;;;5108466;27;20046;-87
2023/04/20 03:35:39;;;;;;;2.53;1.50;;;3.60;99.90;;;;;;5092000;28;20490;-88
2023/04/20 03:38:34;;;;;;;3.70;1.63;;;3.60;99.90;;;;;;5092328;28;20100;-88
2023/04/20 03:40:59;;;;;;;2.60;1.35;;;3.50;99.90;;;;;;5117179;27;20032;-88
2023/04/20 03:43:25;;;;;;;3.00;1.40;;;3.60;99.90;;;;;;5121809;27;20392;-88
2023/04/20 03:45:51;;;;;;;2.47;1.48;;;3.60;99.90;;;;;;5073464;28;20119;-88
2023/04/20 03:48:17;;;;;;;2.58;1.50;;;3.60;99.90;;;;;;5067853;28;20045;-88
2023/04/20 03:50:42;;;;;;;2.00;1.17;;;3.70;99.90;;;;;;5118508;27;20036;-88
2023/04/20 03:53:08;;;;;;;2.40;1.23;;;3.70;99.90;;;;;;5091434;27;20039;-89
2023/04/20 03:55:34;;;;;;;3.72;1.33;;;3.70;99.90;;;;;;5088270;28;20044;-88
2023/04/20 03:58:00;;;;;;;2.40;1.30;;;3.70;99.90;;;;;;5103184;28;20102;-88
2023/04/20 04:00:25;;;;;;;2.15;1.40;;;3.70;99.90;;;;;;5090494;27;20043;-89
2023/04/20 04:02:51;;;;;;;2.53;1.52;;;3.70;99.90;;;;;;5087537;28;20039;-89
2023/04/20 04:05:17;;;;;;;2.90;1.80;;;3.70;99.90;;;;;;5076194;27;20035;-88
2023/04/20 04:07:42;;;;;;;2.22;1.58;;;3.60;99.90;;;;;;5091763;27;20043;-88
2023/04/20 04:10:09;;;;;;;2.53;1.60;;;3.60;99.90;;;;;;5095705;27;20036;-88
2023/04/20 04:12:35;;;;;;;2.33;1.60;;;3.60;99.90;;;;;;5085766;28;20054;-88
2023/04/20 04:15:01;;;;;;;2.30;1.40;;;3.50;99.90;;;;;;5092702;28;20028;-88
2023/04/20 04:17:27;;;;;;;1.80;1.10;;;3.50;99.90;;;;;;5089322;28;20393;-88
2023/04/20 04:19:53;;;;;;;2.55;1.50;;;3.50;99.90;;;;;;5086846;27;20036;-82
2023/04/20 04:22:18;;;;;;;2.45;1.38;;;3.50;99.90;;;;;;5121143;27;20055;-82
2023/04/20 04:24:44;;;;;;;2.92;1.70;;;3.50;99.90;;;;;;5083305;28;20043;-81
2023/04/20 04:27:12;;;;;;;2.75;1.65;;;3.50;99.90;;;;;;5090240;28;20119;-81
2023/04/20 04:29:40;;;;;;;2.42;1.58;;;3.50;99.90;;;;;;5100675;28;20031;-81
2023/04/20 04:32:06;;;;;;;2.50;1.63;;;3.50;99.90;;;;;;5115306;28;20077;-81
2023/04/20 04:34:33;;;;;;;3.22;2.08;;;3.50;99.90;;;;;;5093170;28;20024;-81
2023/04/20 04:37:00;;;;;;;4.97;2.70;;;3.40;99.90;;;;;;5074816;28;20028;-82
2023/04/20 04:39:27;;;;;;;3.83;2.35;;;3.30;99.90;;;;;;5088807;28;20082;-81
2023/04/20 04:41:53;;;;;;;3.75;2.38;;;3.30;99.90;;;;;;5092794;28;20040;-81
2023/04/20 04:44:20;;;;;;;3.97;2.50;;;3.30;99.90;;;;;;5072207;28;20563;-82
2023/04/20 04:46:46;;;;;;;5.10;2.70;;;3.30;99.90;;;;;;5087233;28;20040;-82
2023/04/20 04:49:12;;;;;;;5.10;2.80;;;3.20;99.90;;;;;;5091794;28;20421;-82
2023/04/20 04:51:38;;;;;;;4.55;2.38;;;3.20;99.90;;;;;;5092402;28;20040;-82
2023/04/20 04:54:04;;;;;;;3.22;1.90;;;3.20;99.90;;;;;;5094890;28;20028;-82
2023/04/20 04:56:30;;;;;;;6.03;3.50;;;3.20;99.90;;;;;;5058722;28;20393;-82
2023/04/20 04:58:56;;;;;;;5.90;2.90;;;3.10;99.90;;;;;;5066645;28;20031;-82
2023/04/20 05:01:21;;;;;;;3.38;2.15;;;3.10;99.90;;;;;;5075360;28;20035;-81
2023/04/20 05:03:47;;;;;;;2.85;1.90;;;3.10;99.90;;;;;;5067991;28;20039;-82
2023/04/20 05:06:13;;;;;;;3.47;2.35;;;3.00;99.90;;;;;;5113169;28;20024;-81
2023/04/20 05:08:39;;;;;;;3.00;1.98;;;3.10;99.90;;;;;;5079602;28;20122;-81
2023/04/20 05:11:05;;;;;;;2.92;2.00;;;3.00;99.90;;;;;;5092076;28;20047;-81
2023/04/20 05:13:30;;;;;;;4.10;2.22;;;3.10;99.90;;;;;;5088906;28;20039;-81
2023/04/20 05:15:56;;;;;;;3.78;2.38;;;3.10;99.90;;;;;;5059691;28;20032;-81
2023/04/20 05:18:22;;;;;;;3.83;2.60;;;3.20;99.90;;;;;;5059727;28;20086;-81
2023/04/20 05:20:47;;;;;;;4.45;3.00;;;3.20;99.90;;;;;;5075923;28;20027;-81
2023/04/20 05:23:13;;;;;;;3.80;2.80;;;3.20;99.90;;;;;;5079355;28;20036;-81
2023/04/20 05:25:39;;;;;;;4.05;2.70;;;3.20;99.90;;;;;;5079210;28;20039;-81
2023/04/20 05:28:05;;;;;;;5.15;2.92;;;3.20;99.90;;;;;;5093295;28;20093;-81
2023/04/20 05:30:30;;;;;;;4.70;2.80;;;3.30;99.90;;;;;;5093396;28;20475;-81
2023/04/20 05:32:56;;;;;;;4.32;2.70;;;3.30;99.90;;;;;;5076027;28;20040;-81
2023/04/20 05:35:22;;;;;;;4.05;2.17;;;3.30;99.90;;;;;;5094684;28;20482;-82
2023/04/20 05:37:48;;;;;;;6.18;2.63;;;3.30;99.90;;;;;;5094439;28;20028;-82
2023/04/20 05:40:14;;;;;;;4.60;2.22;;;3.30;99.90;;;;;;5092857;28;20028;-82
2023/04/20 05:42:40;;;;;;;4.30;2.58;;;3.30;99.90;;;;;;5076346;28;20028;-82
2023/04/20 05:45:06;;;;;;;7.20;2.70;;;3.40;99.90;;;;;;5078037;28;20024;-81
2023/04/20 05:47:32;;;;;;;3.90;2.35;;;3.40;99.90;;;;;;5080214;28;20048;-81
2023/04/20 05:49:58;;;;;;;4.38;2.20;;;3.50;99.90;;;;;;5080572;28;20040;-81
2023/04/20 05:52:24;;;;;;;4.25;2.45;;;3.50;99.90;;;;;;5098438;28;20473;-82
2023/04/20 05:54:50;;;;;;;4.15;2.15;;;3.40;99.90;;;;;;5080347;28;20106;-82
2023/04/20 05:57:15;;;;;;;3.45;2.13;;;3.40;99.90;;;;;;5080057;28;20457;-81
2023/04/20 05:59:41;;;;;;;5.35;3.10;;;3.50;99.90;;;;;;5079971;28;20071;-82
2023/04/20 06:02:07;;;;;;;4.45;2.60;;;3.50;99.90;;;;;;5079780;28;20068;-81
2023/04/20 06:04:33;;;;;;;4.28;2.45;;;3.50;99.90;;;;;;5098087;28;20063;-81
2023/04/20 06:06:59;;;;;;;4.25;2.20;;;3.50;99.90;;;;;;5113429;28;20132;-82
2023/04/20 06:09:25;;;;;;;4.82;3.10;;;3.50;99.90;;;;;;5078694;28;20042;-82
2023/04/20 06:11:51;;;;;;;3.63;2.40;;;3.50;99.90;;;;;;5078979;28;20417;-82
2023/04/20 06:14:16;;;;;;;3.30;2.17;;;3.60;99.90;;;;;;5079500;28;20043;-81
2023/04/20 06:16:42;;;;;;;2.40;1.73;;;3.60;99.90;;;;;;5091153;28;20029;-81
2023/04/20 06:19:08;;;;;;;3.38;2.00;;;3.50;99.90;;;;;;5081614;28;20032;-81
2023/04/20 06:21:34;;;;;;;4.10;2.72;;;3.60;99.90;;;;;;5117932;28;20054;-81
2023/04/20 06:24:00;;;;;;;3.92;2.70;;;3.60;99.90;;;;;;5097846;28;20485;-81
2023/04/20 06:26:25;;;;;;;3.78;2.50;;;3.60;99.90;;;;;;5082755;28;20031;-81
2023/04/20 06:28:54;;;;;;;4.38;2.33;;;3.50;99.90;;;;;;5099610;28;20528;-81
2023/04/20 06:31:20;;;;;;;3.28;2.13;;;3.50;99.90;;;;;;5084062;28;20036;-81
2023/04/20 06:33:46;;;;;;;3.58;2.38;;;3.50;99.90;;;;;;5099873;28;20459;-81
2023/04/20 06:36:12;;;;;;;3.67;2.60;;;3.50;99.90;;;;;;5096243;28;20051;-81
2023/04/20 06:38:37;;;;;;;3.97;2.50;;;3.50;99.90;;;;;;5077908;28;20032;-81
2023/04/20 06:41:03;;;;;;;3.65;2.20;;;3.50;99.90;;;;;;5084386;28;20062;-81
2023/04/20 06:43:29;;;;;;;3.38;2.33;;;3.50;99.90;;;;;;5079433;28;20032;-81
2023/04/20 06:45:55;;;;;;;3.65;2.15;;;3.60;99.90;;;;;;5079125;28;20040;-81
2023/04/20 06:48:21;;;;;;;3.33;2.20;;;3.70;99.90;;;;;;5062826;28;20040;-81
2023/04/20 06:50:48;;;;;;;3.10;2.00;;;3.70;99.90;;;;;;5097209;28;20501;-81
2023/04/20 06:53:15;;;;;;;3.00;1.90;;;3.80;99.90;;;;;;5082342;28;20036;-81
2023/04/20 06:55:40;;;;;;;3.00;2.40;;;3.80;99.90;;;;;;5097465;28;20099;-81
2023/04/20 06:58:06;;;;;;;3.70;2.47;;;3.80;99.90;;;;;;5078549;28;20051;-81
2023/04/20 07:00:32;;;;;;;2.95;2.00;;;3.80;99.90;;;;;;5079053;28;20039;-81
2023/04/20 07:02:57;;;;;;;3.38;2.10;;;3.80;99.90;;;;;;5096891;28;20037;-81
2023/04/20 07:05:23;;;;;;;3.22;2.03;;;3.90;99.90;;;;;;5095648;28;20090;-81
2023/04/20 07:07:50;;;;;;;4.57;2.30;;;3.90;99.90;;;;;;5095781;28;20047;-81
2023/04/20 07:10:16;;;;;;;3.38;2.22;;;4.00;99.90;;;;;;5062199;28;20036;-81
2023/04/20 07:12:42;;;;;;;3.42;2.20;;;4.10;99.90;;;;;;5097054;28;20044;-81
2023/04/20 07:15:08;;;;;;;3.72;2.20;;;4.10;99.90;;;;;;5078776;28;20036;-81
2023/04/20 07:17:34;;;;;;;4.47;2.40;;;4.20;99.90;;;;;;5097344;28;20034;-81
2023/04/20 07:20:07;;;;;;;3.42;2.00;;;4.20;99.90;;;;;;5094044;28;20103;-81
2023/04/20 07:22:35;;;;;;;3.88;2.00;;;4.30;99.90;;;;;;5098464;28;20050;-81
2023/04/20 07:25:02;;;;;;;3.38;2.08;;;4.40;99.90;;;;;;5070638;28;20090;-81
2023/04/20 07:27:28;;;;;;;3.13;2.10;;;4.60;99.90;;;;;;5110611;28;20028;-81
2023/04/20 07:29:55;;;;;;;2.70;1.90;;;4.70;99.90;;;;;;5091506;28;20036;-81
2023/04/20 07:32:21;;;;;;;2.83;1.83;;;4.80;99.90;;;;;;5092878;28;20047;-81
2023/04/20 07:34:46;;;;;;;2.50;1.50;;;5.00;99.90;;;;;;5077813;28;20040;-81
2023/04/20 07:37:12;;;;;;;2.67;1.63;;;5.10;99.90;;;;;;5077879;28;20032;-81
2023/04/20 07:39:38;;;;;;;2.85;1.73;;;5.20;99.90;;;;;;5061391;28;20039;-81
2023/04/20 07:42:04;;;;;;;2.65;1.73;;;5.20;99.90;;;;;;5078094;28;20512;-81
2023/04/20 07:44:29;;;;;;;2.75;1.80;;;5.40;99.90;;;;;;5077988;28;20409;-81
2023/04/20 07:46:56;;;;;;;2.75;1.73;;;5.50;99.90;;;;;;5109272;28;20047;-81
2023/04/20 07:49:23;;;;;;;4.50;1.60;;;5.50;99.90;;;;;;5097892;28;20051;-81
2023/04/20 07:51:49;;;;;;;1.90;1.30;;;5.50;99.90;;;;;;5081454;28;20036;-81
2023/04/20 07:54:14;;;;;;;1.70;1.00;;;5.60;99.90;;;;;;5062985;28;20035;-81
2023/04/20 07:56:40;;;;;;;2.83;1.50;;;5.70;99.90;;;;;;5094676;28;20032;-81
2023/04/20 07:59:07;;;;;;;17.23;12.20;;;5.80;99.90;;;;;;5078702;28;20035;-81
2023/04/20 08:01:32;;;;;;;5.38;3.58;;;5.90;99.90;;;;;;5095592;28;20032;-81
2023/04/20 08:03:58;;;;;;;2.08;1.42;;;6.10;99.90;;;;;;5095963;28;20432;-81
2023/04/20 08:06:24;;;;;;;2.75;1.27;;;6.20;99.90;;;;;;5061029;28;20082;-81
2023/04/20 08:08:50;;;;;;;2.10;1.33;;;6.30;99.90;;;;;;5076656;28;20032;-81
2023/04/20 08:11:15;;;;;;;2.65;1.27;;;6.30;99.90;;;;;;5104028;28;20029;-81
2023/04/20 08:13:41;;;;;;;3.10;2.10;;;6.30;99.90;;;;;;5095740;28;20452;-81
2023/04/20 08:16:07;;;;;;;2.33;1.40;;;6.30;99.90;;;;;;5065007;28;20058;-81
2023/04/20 08:18:32;;;;;;;2.38;1.40;;;6.30;99.90;;;;;;5077576;28;20036;-81
2023/04/20 08:20:58;;;;;;;3.67;2.10;;;6.30;99.90;;;;;;5077719;28;20036;-81
2023/04/20 08:23:26;;;;;;;2.85;1.60;;;6.30;99.90;;;;;;5077414;28;20039;-80
2023/04/20 08:25:55;;;;;;;2.05;1.30;;;6.30;99.90;;;;;;5095528;28;20032;-81
2023/04/20 08:28:22;;;;;;;2.58;1.55;;;6.40;99.90;;;;;;5095331;28;20032;-81
2023/04/20 08:30:49;;;;;;;2.53;1.58;;;6.50;99.90;;;;;;5077031;28;20032;-81
2023/04/20 08:33:15;;;;;;;3.85;1.80;;;6.50;99.90;;;;;;5078762;28;20566;-81
2023/04/20 08:35:40;;;;;;;2.70;1.67;;;6.60;99.90;;;;;;5095522;28;20055;-81
2023/04/20 08:38:06;;;;;;;2.33;1.40;;;6.70;99.90;;;;;;5078110;28;20024;-81
2023/04/20 08:40:32;;;;;;;3.75;1.60;;;6.90;99.90;;;;;;5053136;28;20530;-81
2023/04/20 08:43:00;;;;;;;2.53;1.45;;;7.00;99.90;;;;;;5094185;28;20494;-81
2023/04/20 08:45:27;;;;;;;2.47;1.60;;;7.00;99.90;;;;;;5096092;28;20036;-80
2023/04/20 08:47:52;;;;;;;2.50;1.30;;;7.10;99.90;;;;;;5102152;28;20073;-81
2023/04/20 08:50:19;;;;;;;1.75;1.15;;;7.20;99.90;;;;;;5060401;28;20406;-81
2023/04/20 08:52:45;;;;;;;2.45;1.70;;;7.40;99.90;;;;;;5076977;28;20035;-80
2023/04/20 08:55:15;;;;;;;2.00;1.30;;;7.50;99.90;;;;;;5081623;28;20028;-81
2023/04/20 08:57:41;;;;;;;2.42;1.52;;;7.70;99.90;;;;;;5087335;28;20043;-81
2023/04/20 09:00:10;;;;;;;2.13;1.30;;;7.70;99.90;;;;;;5072966;28;20130;-80
2023/04/20 09:02:36;;;;;;;1.90;1.38;;;7.90;99.90;;;;;;5088050;28;20035;-80
2023/04/20 09:05:05;;;;;;;2.17;1.30;;;7.90;99.90;;;;;;5114372;28;20032;-80
2023/04/20 09:07:31;;;;;;;2.28;1.40;;;8.00;99.90;;;;;;5096535;28;20038;-80
2023/04/20 09:09:59;;;;;;;2.55;1.13;;;8.10;99.90;;;;;;5095816;28;20130;-80
2023/04/20 09:12:25;;;;;;;1.95;1.15;;;8.20;99.90;;;;;;5079293;28;20105;-80
2023/04/20 09:14:52;;;;;;;2.45;1.30;;;8.40;99.90;;;;;;5114451;28;20036;-80
2023/04/20 09:17:33;;;;;;;1.48;0.80;;;8.50;99.90;;;;;;5096956;28;20426;-80
2023/04/20 09:19:58;;;;;;;1.30;0.70;;;8.70;99.90;;;;;;5116000;28;20031;-80
2023/04/20 09:22:33;;;;;;;1.23;0.80;;;9.00;99.90;;;;;;5100594;28;20036;-80
2023/04/20 09:25:00;;;;;;;1.83;0.95;;;9.20;99.90;;;;;;5119059;28;20031;-80
2023/04/20 09:27:26;;;;;;;1.63;0.90;;;9.30;99.90;;;;;;5083564;28;20169;-80
2023/04/20 09:30:00;;;;;;;1.33;0.80;;;9.40;99.90;;;;;;5089161;28;20064;-80
2023/04/20 09:32:27;;;;;;;2.00;0.90;;;9.50;99.90;;;;;;5105085;28;20036;-80
2023/04/20 09:34:53;;;;;;;1.73;0.80;;;9.60;99.90;;;;;;5088693;28;20134;-80
2023/04/20 09:37:19;;;;;;;2.05;1.00;;;9.70;99.90;;;;;;5108212;28;20512;-80
2023/04/20 09:39:45;;;;;;;1.48;0.90;;;9.80;99.90;;;;;;5063490;28;20123;-80
2023/04/20 09:42:12;;;;;;;1.13;0.73;;;9.90;99.90;;;;;;5097789;28;20059;-80
2023/04/20 09:44:39;;;;;;;1.75;0.90;;;10.00;99.90;;;;;;5079876;28;20462;-80
2023/04/20 09:47:07;;;;;;;1.30;0.82;;;10.10;99.90;;;;;;5112751;28;20031;-80
2023/04/20 09:49:34;;;;;;;1.48;0.98;;;10.20;99.90;;;;;;5108621;28;20102;-80
2023/04/20 09:52:03;;;;;;;2.30;1.10;;;10.40;99.90;;;;;;5078167;28;20032;-80
2023/04/20 09:54:30;;;;;;;1.70;0.88;;;10.50;99.90;;;;;;5111346;28;20020;-80
2023/04/20 09:56:58;;;;;;;1.23;0.82;;;10.60;99.90;;;;;;5099157;28;20042;-79
2023/04/20 09:59:25;;;;;;;1.33;0.70;;;10.70;99.90;;;;;;5097412;28;20035;-80
2023/04/20 10:01:51;;;;;;;1.90;1.00;;;10.90;99.90;;;;;;5102377;28;20032;-79
2023/04/20 10:04:16;;;;;;;2.72;0.90;;;11.00;99.90;;;;;;5100925;28;20024;-80
2023/04/20 10:06:56;;;;;;;1.60;0.90;;;11.00;99.90;;;;;;5092140;28;20151;-80
2023/04/20 10:09:24;;;;;;;1.60;0.80;;;11.00;99.90;;;;;;5101158;28;20114;-80
2023/04/20 10:11:51;;;;;;;2.05;1.10;;;11.00;99.90;;;;;;5106471;28;20028;-80
2023/04/20 10:14:22;;;;;;;1.58;0.98;;;11.10;99.90;;;;;;5112828;28;20164;-80
2023/04/20 10:17:02;;;;;;;1.33;0.82;;;11.20;99.90;;;;;;5119087;28;20496;-79
2023/04/20 10:19:43;;;;;;;1.67;1.13;;;11.20;99.90;;;;;;5109193;28;20042;-80
2023/04/20 10:22:24;;;;;;;1.52;0.90;;;11.30;99.90;;;;;;5102185;28;20020;-80
2023/04/20 10:24:49;;;;;;;1.63;1.07;;;11.40;99.90;;;;;;5089948;28;20031;-80
2023/04/20 10:27:24;;;;;;;1.52;0.93;;;11.50;99.90;;;;;;5080764;28;20292;-79
2023/04/20 10:29:50;;;;;;;2.95;1.10;;;11.60;99.90;;;;;;5110279;28;20028;-79
2023/04/20 10:32:22;;;;;;;1.70;1.02;;;11.50;99.90;;;;;;5090578;28;20051;-79
2023/04/20 10:35:06;;;;;;;1.88;1.00;;;11.60;99.90;;;;;;5104168;28;20383;-79
2023/04/20 10:37:32;;;;;;;1.50;0.80;;;11.70;99.90;;;;;;5116408;28;20038;-79
2023/04/20 10:39:58;;;;;;;1.10;0.70;;;11.80;99.90;;;;;;5078715;28;20070;-79
2023/04/20 10:42:25;;;;;;;1.42;0.70;;;11.70;99.90;;;;;;5088486;28;20056;-79
2023/04/20 10:44:52;;;;;;;1.10;0.70;;;11.60;99.90;;;;;;5105403;28;20560;-79
2023/04/20 10:47:31;;;;;;;2.72;0.80;;;11.70;99.90;;;;;;5100869;28;20039;-79
2023/04/20 10:50:09;;;;;;;1.27;0.75;;;11.80;99.90;;;;;;5096877;28;20032;-80
2023/04/20 10:52:36;;;;;;;1.75;0.77;;;11.90;99.90;;;;;;5087772;28;20400;-79
2023/04/20 10:55:03;;;;;;;1.25;0.75;;;12.10;99.90;;;;;;5107119;28;20032;-80
2023/04/20 10:57:29;;;;;;;1.20;0.77;;;12.20;99.90;;;;;;5090028;28;20036;-79
2023/04/20 10:59:54;;;;;;;1.08;0.60;;;12.30;99.90;;;;;;5107727;28;20034;-79
2023/04/20 11:02:20;;;;;;;0.75;0.50;;;12.20;99.90;;;;;;5099706;28;20068;-79
2023/04/20 11:04:46;;;;;;;1.73;0.98;;;12.20;99.90;;;;;;5110278;28;20043;-79
2023/04/20 11:07:14;;;;;;;1.15;0.68;;;12.20;99.90;;;;;;5093080;28;20199;-80
2023/04/20 11:09:41;;;;;;;1.73;0.60;;;12.20;99.90;;;;;;5089741;28;20041;-80
2023/04/20 11:12:13;;;;;;;1.83;1.00;;;12.30;99.90;;;;;;5108062;28;20493;-79
2023/04/20 11:14:54;;;;;;;1.52;1.00;;;12.50;99.90;;;;;;5102289;28;20028;-79
2023/04/20 11:17:31;;;;;;;2.15;0.80;;;12.50;99.90;;;;;;5107928;28;20373;-80
2023/04/20 11:20:09;;;;;;;1.30;0.70;;;12.70;99.90;;;;;;5104256;28;20016;-79
2023/04/20 11:22:37;;;;;;;1.73;0.88;;;12.90;99.90;;;;;;5095746;28;20501;-79
2023/04/20 11:25:10;;;;;;;3.53;0.98;;;13.00;99.90;;;;;;5090466;28;20040;-79
2023/04/20 11:27:37;;;;;;;1.08;0.70;;;13.00;99.90;;;;;;5106225;28;20058;-79
2023/04/20 11:30:04;;;;;;;2.45;0.75;;;13.00;99.90;;;;;;5106063;28;20035;-79
2023/04/20 11:32:34;;;;;;;2.03;0.77;;;13.00;99.90;;;;;;5109247;28;20516;-79
2023/04/20 11:35:09;;;;;;;0.68;0.50;;;12.90;99.90;;;;;;5098494;28;20040;-79
2023/04/20 11:37:50;;;;;;;1.77;0.90;;;12.90;99.90;;;;;;5105392;28;20549;-79
2023/04/20 11:40:16;;;;;;;1.08;0.60;;;13.20;99.90;;;;;;5091750;28;20504;-79
2023/04/20 11:42:42;;;;;;;1.00;0.60;;;13.20;99.90;;;;;;5103506;28;20044;-79
2023/04/20 11:45:10;;;;;;;1.65;0.70;;;13.40;99.90;;;;;;5113436;28;20094;-79
2023/04/20 11:47:37;;;;;;;0.95;0.52;;;13.50;99.90;;;;;;5109397;28;20023;-79
2023/04/20 11:50:04;;;;;;;1.20;0.63;;;13.70;99.90;;;;;;5101102;28;20027;-79
2023/04/20 11:52:29;;;;;;;1.08;0.70;;;13.90;99.90;;;;;;5075703;28;20489;-79
2023/04/20 11:54:55;;;;;;;1.13;0.80;;;13.90;99.90;;;;;;5105999;28;20028;-79
2023/04/20 11:57:22;;;;;;;1.13;0.60;;;14.00;99.90;;;;;;5106892;28;20028;-79
2023/04/20 11:59:48;;;;;;;1.30;0.75;;;14.10;99.90;;;;;;5119447;28;20107;-79
2023/04/20 12:02:14;;;;;;;2.65;0.60;;;14.20;99.90;;;;;;5091632;28;20067;-79
2023/04/20 12:04:40;;;;;;;5.97;0.77;;;14.30;99.90;;;;;;5107054;28;20032;-79
2023/04/20 12:07:06;;;;;;;1.67;0.50;;;14.40;99.90;;;;;;5109441;28;20075;-79
2023/04/20 12:09:37;;;;;;;0.90;0.60;;;14.40;99.90;;;;;;5091055;28;20111;-79
2023/04/20 12:12:07;;;;;;;1.80;0.65;;;14.40;99.90;;;;;;5080817;28;20509;-79
2023/04/20 12:14:33;;;;;;;1.80;0.68;;;14.40;99.90;;;;;;5100636;28;20040;-79
2023/04/20 12:17:00;;;;;;;1.50;0.70;;;14.50;99.90;;;;;;5082260;28;20024;-79
2023/04/20 12:19:26;;;;;;;0.95;0.65;;;14.50;99.90;;;;;;5106525;28;20020;-78
2023/04/20 12:21:52;;;;;;;0.88;0.60;;;14.40;99.90;;;;;;5111076;28;20027;-79
2023/04/20 12:24:17;;;;;;;1.48;0.80;;;14.50;99.90;;;;;;5082316;28;20127;-79
2023/04/20 12:26:43;;;;;;;1.20;0.60;;;14.60;99.90;;;;;;5088837;28;20044;-79
2023/04/20 12:29:09;;;;;;;1.45;0.90;;;14.60;99.90;;;;;;5095009;28;20039;-79
2023/04/20 12:31:35;;;;;;;1.02;0.63;;;14.70;99.90;;;;;;5090767;28;20023;-79
2023/04/20 12:34:01;;;;;;;1.80;0.80;;;14.80;99.90;;;;;;5106768;28;20032;-79
2023/04/20 12:36:27;;;;;;;1.83;0.73;;;14.60;99.90;;;;;;5097173;28;20059;-78
2023/04/20 12:38:54;;;;;;;0.98;0.60;;;14.60;99.90;;;;;;5105945;28;20059;-78
2023/04/20 12:41:21;;;;;;;3.63;0.70;;;14.60;99.90;;;;;;5107673;28;20036;-78
2023/04/20 12:43:48;;;;;;;1.10;0.60;;;14.70;99.90;;;;;;5101287;28;20040;-78
2023/04/20 12:46:14;;;;;;;1.98;0.60;;;14.80;99.90;;;;;;5083428;28;20032;-78
2023/04/20 12:48:40;;;;;;;1.10;0.73;;;14.80;99.90;;;;;;5083628;28;20035;-78
2023/04/20 12:51:06;;;;;;;0.90;0.50;;;14.90;99.90;;;;;;5119113;28;20036;-78
2023/04/20 12:53:32;;;;;;;0.70;0.47;;;14.90;99.90;;;;;;5117481;28;20040;-78